• °C
  • Pobieranie danych...
wx


PRINT OUT SECTION, show »

TAF EPLB 261430Z 2615/2624 27012KT 9999 SCT020 BKN035
TEMPO 2615/2621 DRSN BKN012
PROB40 TEMPO 2615/2618 29017G31KT BLSN
BECMG 2618/2621 BKN012 BKN020
TEMPO 2621/2624 -SN BKN008 BKN013=

TAF EPRA 260200Z NIL=

TAF EPSY 261430Z 2615/2624 30010KT 9999 BKN030
PROB40 TEMPO 2615/2622 4000 -SN BR BKN010 OVC015=

TAF AMD EPZG 261600Z 2616/2624 26010KT 8000 -SN BKN015
TEMPO 2616/2624 2500 SN BR BKN007 BKN012
PROB30 TEMPO 2616/2624 1400 SHSN BKN004 BKN009CB=



IMGW-PIB Sites